Huvudsida
METAR-TAF:

METAR-TAF

Flygplatser :

Bornholms flygplats

Rønne, Danmark

latitud: 55-04N, longitud: 014-45E, höjd: 16 m

Aktuellt väderrapport

Denna rapport gjordes för 17 minuter sedan, klockan 06:20 UTC
Vind 11 kt från väst/sydväst
Temperatur 17°C
Fuktighet 94%
Tryck 1008 hPa
Sikt 10 km eller mer

METAR: EKRN 210620Z AUTO 25011KT 9999NDV BKN008/// OVC049/// 17/16 Q1008

Tid: 08:37 (06:37 UTC)

Väderprognos

Denna rapport gjordes för 16 minuter sedan, klockan 06:21 UTC
Prognos gäller från 21 kl. 06 UTC till 21 kl. 15 UTC
Vind 12 kt från väst/sydväst
Sikt 10 km eller mer
Brutna moln på en höjd av 3000 ft
Temporärt
från 21 kl. 06 UTC till 21 kl. 13 UTC
Brutna moln på en höjd av 800 ft
lätt regn

TAF: EKRN 210621Z 2106/2115 25012KT 9999 BKN030 TEMPO 2106/2113 -RA BKN008

Aktuella väderrapporter och prognoser från 4000 flygplatser (METAR- och TAF-rapporter).

De tillgängliga stationerna syns som gula och röda prickar på kartan.

För musen över prickarna för att se namnen på stationerna.

Klicka sedan för att få väderrapporter och prognoser.

För att ändra kartan: Klicka på de gröna knapparna med ett svart kors på för att zooma in; den gröna knappen med ett streck på för att zooma ut; eller på de gröna pilarna för angränsande kartor.


METAR-TAF: